sensor_id;sensor_type;location;lat;lon;timestamp;P1;durP1;ratioP1;P2;durP2;ratioP2
46643;SDS011;32371;51.032;5.816;2023-05-07T00:00:02;3.47;;;2.22;;
46643;SDS011;32371;51.032;5.816;2023-05-07T00:02:28;3.75;;;2.15;;
46643;SDS011;32371;51.032;5.816;2023-05-07T00:04:54;4.70;;;2.72;;
46643;SDS011;32371;51.032;5.816;2023-05-07T00:07:20;4.82;;;2.25;;
46643;SDS011;32371;51.032;5.816;2023-05-07T00:09:45;4.30;;;2.20;;
46643;SDS011;32371;51.032;5.816;2023-05-07T00:12:11;2.75;;;2.20;;
46643;SDS011;32371;51.032;5.816;2023-05-07T00:14:36;4.03;;;2.13;;
46643;SDS011;32371;51.032;5.816;2023-05-07T00:17:01;2.80;;;2.30;;
46643;SDS011;32371;51.032;5.816;2023-05-07T00:19:27;2.53;;;2.30;;
46643;SDS011;32371;51.032;5.816;2023-05-07T00:21:52;3.08;;;2.15;;
46643;SDS011;32371;51.032;5.816;2023-05-07T00:24:19;4.65;;;2.70;;
46643;SDS011;32371;51.032;5.816;2023-05-07T00:26:44;5.03;;;2.55;;
46643;SDS011;32371;51.032;5.816;2023-05-07T00:29:09;4.18;;;2.50;;
46643;SDS011;32371;51.032;5.816;2023-05-07T00:31:35;6.03;;;2.63;;
46643;SDS011;32371;51.032;5.816;2023-05-07T00:34:00;3.78;;;2.60;;
46643;SDS011;32371;51.032;5.816;2023-05-07T00:36:26;4.53;;;2.25;;
46643;SDS011;32371;51.032;5.816;2023-05-07T00:38:51;7.03;;;2.45;;
46643;SDS011;32371;51.032;5.816;2023-05-07T00:41:16;4.05;;;2.78;;
46643;SDS011;32371;51.032;5.816;2023-05-07T00:43:42;8.10;;;2.63;;
46643;SDS011;32371;51.032;5.816;2023-05-07T00:46:08;7.47;;;2.97;;
46643;SDS011;32371;51.032;5.816;2023-05-07T00:48:33;7.07;;;2.80;;
46643;SDS011;32371;51.032;5.816;2023-05-07T00:50:58;6.13;;;3.67;;
46643;SDS011;32371;51.032;5.816;2023-05-07T00:53:24;5.38;;;2.33;;
46643;SDS011;32371;51.032;5.816;2023-05-07T00:55:50;6.70;;;2.50;;
46643;SDS011;32371;51.032;5.816;2023-05-07T00:58:16;4.70;;;2.60;;
46643;SDS011;32371;51.032;5.816;2023-05-07T01:00:41;5.28;;;2.22;;
46643;SDS011;32371;51.032;5.816;2023-05-07T01:03:07;10.57;;;2.25;;
46643;SDS011;32371;51.032;5.816;2023-05-07T01:05:32;5.55;;;2.85;;
46643;SDS011;32371;51.032;5.816;2023-05-07T01:07:58;5.10;;;2.92;;
46643;SDS011;32371;51.032;5.816;2023-05-07T01:10:24;4.18;;;2.40;;
46643;SDS011;32371;51.032;5.816;2023-05-07T01:12:50;3.78;;;2.53;;
46643;SDS011;32371;51.032;5.816;2023-05-07T01:15:15;3.78;;;2.67;;
46643;SDS011;32371;51.032;5.816;2023-05-07T01:17:41;5.80;;;2.50;;
46643;SDS011;32371;51.032;5.816;2023-05-07T01:20:07;4.72;;;2.58;;
46643;SDS011;32371;51.032;5.816;2023-05-07T01:22:35;6.45;;;2.40;;
46643;SDS011;32371;51.032;5.816;2023-05-07T01:25:22;2.50;;;2.00;;
46643;SDS011;32371;51.032;5.816;2023-05-07T01:27:48;5.80;;;2.50;;
46643;SDS011;32371;51.032;5.816;2023-05-07T01:30:13;4.55;;;2.70;;
46643;SDS011;32371;51.032;5.816;2023-05-07T01:32:59;6.70;;;2.78;;
46643;SDS011;32371;51.032;5.816;2023-05-07T01:35:27;4.75;;;2.33;;
46643;SDS011;32371;51.032;5.816;2023-05-07T01:37:54;4.82;;;2.90;;
46643;SDS011;32371;51.032;5.816;2023-05-07T01:40:20;4.70;;;2.80;;
46643;SDS011;32371;51.032;5.816;2023-05-07T01:42:46;6.60;;;3.33;;
46643;SDS011;32371;51.032;5.816;2023-05-07T01:45:13;7.60;;;2.65;;
46643;SDS011;32371;51.032;5.816;2023-05-07T01:47:38;3.00;;;2.28;;
46643;SDS011;32371;51.032;5.816;2023-05-07T01:50:07;3.47;;;2.55;;
46643;SDS011;32371;51.032;5.816;2023-05-07T01:52:38;4.63;;;2.72;;
46643;SDS011;32371;51.032;5.816;2023-05-07T01:55:04;4.25;;;2.50;;
46643;SDS011;32371;51.032;5.816;2023-05-07T01:57:30;6.80;;;3.00;;
46643;SDS011;32371;51.032;5.816;2023-05-07T01:59:56;4.40;;;2.28;;
46643;SDS011;32371;51.032;5.816;2023-05-07T02:02:21;4.55;;;2.45;;
46643;SDS011;32371;51.032;5.816;2023-05-07T02:04:46;8.77;;;3.10;;
46643;SDS011;32371;51.032;5.816;2023-05-07T02:07:12;7.90;;;3.17;;
46643;SDS011;32371;51.032;5.816;2023-05-07T02:09:37;5.60;;;3.65;;
46643;SDS011;32371;51.032;5.816;2023-05-07T02:12:03;5.10;;;3.00;;
46643;SDS011;32371;51.032;5.816;2023-05-07T02:14:28;3.90;;;2.78;;
46643;SDS011;32371;51.032;5.816;2023-05-07T02:16:54;7.20;;;3.40;;
46643;SDS011;32371;51.032;5.816;2023-05-07T02:19:19;6.22;;;3.92;;
46643;SDS011;32371;51.032;5.816;2023-05-07T02:21:46;4.35;;;3.35;;
46643;SDS011;32371;51.032;5.816;2023-05-07T02:24:11;4.45;;;3.53;;
46643;SDS011;32371;51.032;5.816;2023-05-07T02:26:37;7.30;;;3.35;;
46643;SDS011;32371;51.032;5.816;2023-05-07T02:29:02;5.10;;;3.20;;
46643;SDS011;32371;51.032;5.816;2023-05-07T02:31:28;7.80;;;3.85;;
46643;SDS011;32371;51.032;5.816;2023-05-07T02:33:54;5.43;;;3.35;;
46643;SDS011;32371;51.032;5.816;2023-05-07T02:36:19;4.57;;;3.63;;
46643;SDS011;32371;51.032;5.816;2023-05-07T02:38:44;5.20;;;3.63;;
46643;SDS011;32371;51.032;5.816;2023-05-07T02:41:10;6.10;;;2.88;;
46643;SDS011;32371;51.032;5.816;2023-05-07T02:43:36;5.10;;;2.53;;
46643;SDS011;32371;51.032;5.816;2023-05-07T02:46:05;4.85;;;3.40;;
46643;SDS011;32371;51.032;5.816;2023-05-07T02:48:31;8.38;;;2.85;;
46643;SDS011;32371;51.032;5.816;2023-05-07T02:50:57;5.95;;;3.00;;
46643;SDS011;32371;51.032;5.816;2023-05-07T02:53:23;6.43;;;3.22;;
46643;SDS011;32371;51.032;5.816;2023-05-07T02:55:51;11.40;;;2.80;;
46643;SDS011;32371;51.032;5.816;2023-05-07T02:58:17;3.70;;;2.80;;
46643;SDS011;32371;51.032;5.816;2023-05-07T03:00:43;3.92;;;3.10;;
46643;SDS011;32371;51.032;5.816;2023-05-07T03:03:08;4.30;;;2.90;;
46643;SDS011;32371;51.032;5.816;2023-05-07T03:05:33;4.35;;;3.15;;
46643;SDS011;32371;51.032;5.816;2023-05-07T03:07:59;3.97;;;3.00;;
46643;SDS011;32371;51.032;5.816;2023-05-07T03:10:24;4.30;;;3.25;;
46643;SDS011;32371;51.032;5.816;2023-05-07T03:12:50;4.38;;;3.00;;
46643;SDS011;32371;51.032;5.816;2023-05-07T03:15:15;7.35;;;3.03;;
46643;SDS011;32371;51.032;5.816;2023-05-07T03:17:40;5.07;;;2.97;;
46643;SDS011;32371;51.032;5.816;2023-05-07T03:20:06;5.18;;;3.10;;
46643;SDS011;32371;51.032;5.816;2023-05-07T03:22:32;5.38;;;3.13;;
46643;SDS011;32371;51.032;5.816;2023-05-07T03:24:57;7.55;;;3.88;;
46643;SDS011;32371;51.032;5.816;2023-05-07T03:27:23;5.18;;;2.85;;
46643;SDS011;32371;51.032;5.816;2023-05-07T03:29:48;4.63;;;2.60;;
46643;SDS011;32371;51.032;5.816;2023-05-07T03:32:14;5.47;;;3.35;;
46643;SDS011;32371;51.032;5.816;2023-05-07T03:34:39;5.55;;;3.20;;
46643;SDS011;32371;51.032;5.816;2023-05-07T03:37:05;6.55;;;3.33;;
46643;SDS011;32371;51.032;5.816;2023-05-07T03:39:30;3.97;;;2.78;;
46643;SDS011;32371;51.032;5.816;2023-05-07T03:41:57;6.45;;;3.20;;
46643;SDS011;32371;51.032;5.816;2023-05-07T03:44:23;4.40;;;2.80;;
46643;SDS011;32371;51.032;5.816;2023-05-07T03:46:48;4.60;;;2.90;;
46643;SDS011;32371;51.032;5.816;2023-05-07T03:49:14;7.05;;;4.07;;
46643;SDS011;32371;51.032;5.816;2023-05-07T03:51:39;4.72;;;3.55;;
46643;SDS011;32371;51.032;5.816;2023-05-07T03:54:04;7.70;;;3.60;;
46643;SDS011;32371;51.032;5.816;2023-05-07T03:56:30;6.65;;;3.40;;
46643;SDS011;32371;51.032;5.816;2023-05-07T03:58:56;3.88;;;2.35;;
46643;SDS011;32371;51.032;5.816;2023-05-07T04:01:21;4.50;;;2.53;;
46643;SDS011;32371;51.032;5.816;2023-05-07T04:03:47;4.43;;;2.60;;
46643;SDS011;32371;51.032;5.816;2023-05-07T04:06:12;4.15;;;2.78;;
46643;SDS011;32371;51.032;5.816;2023-05-07T04:08:37;4.47;;;3.28;;
46643;SDS011;32371;51.032;5.816;2023-05-07T04:11:03;9.05;;;2.78;;
46643;SDS011;32371;51.032;5.816;2023-05-07T04:13:29;4.90;;;3.10;;
46643;SDS011;32371;51.032;5.816;2023-05-07T04:15:55;6.93;;;3.00;;
46643;SDS011;32371;51.032;5.816;2023-05-07T04:18:20;5.38;;;3.17;;
46643;SDS011;32371;51.032;5.816;2023-05-07T04:20:47;4.20;;;2.88;;
46643;SDS011;32371;51.032;5.816;2023-05-07T04:23:13;5.40;;;2.75;;
46643;SDS011;32371;51.032;5.816;2023-05-07T04:25:38;7.15;;;2.95;;
46643;SDS011;32371;51.032;5.816;2023-05-07T04:28:03;3.53;;;3.22;;
46643;SDS011;32371;51.032;5.816;2023-05-07T04:30:29;4.78;;;2.72;;
46643;SDS011;32371;51.032;5.816;2023-05-07T04:32:54;4.05;;;3.28;;
46643;SDS011;32371;51.032;5.816;2023-05-07T04:35:21;5.30;;;3.30;;
46643;SDS011;32371;51.032;5.816;2023-05-07T04:37:46;5.03;;;2.85;;
46643;SDS011;32371;51.032;5.816;2023-05-07T04:40:12;6.05;;;3.40;;
46643;SDS011;32371;51.032;5.816;2023-05-07T04:42:37;5.05;;;3.13;;
46643;SDS011;32371;51.032;5.816;2023-05-07T04:45:03;4.43;;;2.95;;
46643;SDS011;32371;51.032;5.816;2023-05-07T04:47:30;10.27;;;3.13;;
46643;SDS011;32371;51.032;5.816;2023-05-07T04:49:55;6.05;;;3.88;;
46643;SDS011;32371;51.032;5.816;2023-05-07T04:52:20;5.60;;;3.45;;
46643;SDS011;32371;51.032;5.816;2023-05-07T04:54:46;5.05;;;2.85;;
46643;SDS011;32371;51.032;5.816;2023-05-07T04:57:11;5.22;;;3.35;;
46643;SDS011;32371;51.032;5.816;2023-05-07T04:59:36;9.52;;;3.63;;
46643;SDS011;32371;51.032;5.816;2023-05-07T05:02:02;3.88;;;2.80;;
46643;SDS011;32371;51.032;5.816;2023-05-07T05:04:29;6.68;;;3.30;;
46643;SDS011;32371;51.032;5.816;2023-05-07T05:06:54;6.95;;;3.42;;
46643;SDS011;32371;51.032;5.816;2023-05-07T05:09:20;7.55;;;3.67;;
46643;SDS011;32371;51.032;5.816;2023-05-07T05:11:45;6.22;;;3.95;;
46643;SDS011;32371;51.032;5.816;2023-05-07T05:14:10;7.63;;;3.17;;
46643;SDS011;32371;51.032;5.816;2023-05-07T05:16:36;5.05;;;3.15;;
46643;SDS011;32371;51.032;5.816;2023-05-07T05:19:01;5.63;;;3.13;;
46643;SDS011;32371;51.032;5.816;2023-05-07T05:21:27;2.58;;;2.33;;
46643;SDS011;32371;51.032;5.816;2023-05-07T05:23:53;3.38;;;2.53;;
46643;SDS011;32371;51.032;5.816;2023-05-07T05:26:19;6.47;;;3.13;;
46643;SDS011;32371;51.032;5.816;2023-05-07T05:28:46;7.55;;;2.88;;
46643;SDS011;32371;51.032;5.816;2023-05-07T05:31:11;6.82;;;2.67;;
46643;SDS011;32371;51.032;5.816;2023-05-07T05:33:37;7.68;;;2.88;;
46643;SDS011;32371;51.032;5.816;2023-05-07T05:36:02;8.85;;;3.22;;
46643;SDS011;32371;51.032;5.816;2023-05-07T05:38:28;4.65;;;2.63;;
46643;SDS011;32371;51.032;5.816;2023-05-07T05:40:54;7.15;;;2.92;;
46643;SDS011;32371;51.032;5.816;2023-05-07T05:43:19;6.15;;;2.80;;
46643;SDS011;32371;51.032;5.816;2023-05-07T05:45:45;4.45;;;2.90;;
46643;SDS011;32371;51.032;5.816;2023-05-07T05:48:10;7.30;;;2.75;;
46643;SDS011;32371;51.032;5.816;2023-05-07T05:50:36;6.70;;;2.60;;
46643;SDS011;32371;51.032;5.816;2023-05-07T05:53:02;3.92;;;2.70;;
46643;SDS011;32371;51.032;5.816;2023-05-07T05:55:27;7.15;;;2.65;;
46643;SDS011;32371;51.032;5.816;2023-05-07T05:57:53;6.72;;;2.63;;
46643;SDS011;32371;51.032;5.816;2023-05-07T06:00:19;5.55;;;2.65;;
46643;SDS011;32371;51.032;5.816;2023-05-07T06:02:47;4.53;;;2.40;;
46643;SDS011;32371;51.032;5.816;2023-05-07T06:05:12;4.45;;;2.85;;
46643;SDS011;32371;51.032;5.816;2023-05-07T06:07:38;6.18;;;2.80;;
46643;SDS011;32371;51.032;5.816;2023-05-07T06:10:03;3.95;;;2.47;;
46643;SDS011;32371;51.032;5.816;2023-05-07T06:12:29;4.25;;;2.70;;
46643;SDS011;32371;51.032;5.816;2023-05-07T06:14:54;5.30;;;2.65;;
46643;SDS011;32371;51.032;5.816;2023-05-07T06:17:20;4.18;;;2.50;;
46643;SDS011;32371;51.032;5.816;2023-05-07T06:19:46;3.88;;;2.42;;
46643;SDS011;32371;51.032;5.816;2023-05-07T06:22:12;4.03;;;2.28;;
46643;SDS011;32371;51.032;5.816;2023-05-07T06:24:37;3.42;;;1.88;;
46643;SDS011;32371;51.032;5.816;2023-05-07T06:27:02;3.72;;;2.40;;
46643;SDS011;32371;51.032;5.816;2023-05-07T06:29:28;6.38;;;2.72;;
46643;SDS011;32371;51.032;5.816;2023-05-07T06:31:55;4.13;;;2.78;;
46643;SDS011;32371;51.032;5.816;2023-05-07T06:34:20;4.45;;;2.83;;
46643;SDS011;32371;51.032;5.816;2023-05-07T06:36:46;3.92;;;2.22;;
46643;SDS011;32371;51.032;5.816;2023-05-07T06:39:11;4.80;;;2.55;;
46643;SDS011;32371;51.032;5.816;2023-05-07T06:41:37;3.08;;;2.10;;
46643;SDS011;32371;51.032;5.816;2023-05-07T06:44:02;2.90;;;2.58;;
46643;SDS011;32371;51.032;5.816;2023-05-07T06:46:28;3.17;;;2.08;;
46643;SDS011;32371;51.032;5.816;2023-05-07T06:48:53;2.63;;;2.15;;
46643;SDS011;32371;51.032;5.816;2023-05-07T06:51:19;3.67;;;2.17;;
46643;SDS011;32371;51.032;5.816;2023-05-07T06:53:44;6.53;;;2.53;;
46643;SDS011;32371;51.032;5.816;2023-05-07T06:56:10;3.28;;;1.80;;
46643;SDS011;32371;51.032;5.816;2023-05-07T06:58:35;2.83;;;1.70;;
46643;SDS011;32371;51.032;5.816;2023-05-07T07:01:02;2.90;;;1.80;;
46643;SDS011;32371;51.032;5.816;2023-05-07T07:03:27;6.05;;;2.03;;
46643;SDS011;32371;51.032;5.816;2023-05-07T07:05:53;6.18;;;2.47;;
46643;SDS011;32371;51.032;5.816;2023-05-07T07:08:19;3.47;;;1.90;;
46643;SDS011;32371;51.032;5.816;2023-05-07T07:10:46;6.30;;;2.03;;
46643;SDS011;32371;51.032;5.816;2023-05-07T07:13:12;4.03;;;2.05;;
46643;SDS011;32371;51.032;5.816;2023-05-07T07:15:37;9.43;;;2.03;;
46643;SDS011;32371;51.032;5.816;2023-05-07T07:18:02;3.20;;;1.70;;
46643;SDS011;32371;51.032;5.816;2023-05-07T07:20:28;4.45;;;1.95;;
46643;SDS011;32371;51.032;5.816;2023-05-07T07:22:55;4.00;;;1.88;;
46643;SDS011;32371;51.032;5.816;2023-05-07T07:25:21;5.82;;;2.30;;
46643;SDS011;32371;51.032;5.816;2023-05-07T07:27:47;3.45;;;2.28;;
46643;SDS011;32371;51.032;5.816;2023-05-07T07:30:12;3.22;;;1.95;;
46643;SDS011;32371;51.032;5.816;2023-05-07T07:32:38;3.72;;;1.75;;
46643;SDS011;32371;51.032;5.816;2023-05-07T07:35:03;2.00;;;1.80;;
46643;SDS011;32371;51.032;5.816;2023-05-07T07:37:29;4.07;;;1.83;;
46643;SDS011;32371;51.032;5.816;2023-05-07T07:39:55;4.43;;;1.90;;
46643;SDS011;32371;51.032;5.816;2023-05-07T07:42:20;4.03;;;2.10;;
46643;SDS011;32371;51.032;5.816;2023-05-07T07:44:46;7.25;;;2.10;;
46643;SDS011;32371;51.032;5.816;2023-05-07T07:47:11;2.42;;;2.13;;
46643;SDS011;32371;51.032;5.816;2023-05-07T07:49:36;6.45;;;2.05;;
46643;SDS011;32371;51.032;5.816;2023-05-07T07:52:02;7.55;;;1.77;;
46643;SDS011;32371;51.032;5.816;2023-05-07T07:54:27;5.65;;;1.58;;
46643;SDS011;32371;51.032;5.816;2023-05-07T07:56:54;2.10;;;1.40;;
46643;SDS011;32371;51.032;5.816;2023-05-07T07:59:19;4.43;;;1.55;;
46643;SDS011;32371;51.032;5.816;2023-05-07T08:01:45;4.18;;;1.45;;
46643;SDS011;32371;51.032;5.816;2023-05-07T08:04:10;3.78;;;1.67;;
46643;SDS011;32371;51.032;5.816;2023-05-07T08:06:36;5.32;;;1.50;;
46643;SDS011;32371;51.032;5.816;2023-05-07T08:09:01;2.60;;;1.48;;
46643;SDS011;32371;51.032;5.816;2023-05-07T08:11:27;1.55;;;1.30;;
46643;SDS011;32371;51.032;5.816;2023-05-07T08:13:53;3.35;;;1.55;;
46643;SDS011;32371;51.032;5.816;2023-05-07T08:16:19;3.42;;;1.38;;
46643;SDS011;32371;51.032;5.816;2023-05-07T08:18:44;3.42;;;1.23;;
46643;SDS011;32371;51.032;5.816;2023-05-07T08:21:10;5.78;;;0.93;;
46643;SDS011;32371;51.032;5.816;2023-05-07T08:23:36;2.20;;;1.58;;
46643;SDS011;32371;51.032;5.816;2023-05-07T08:26:01;1.08;;;1.00;;
46643;SDS011;32371;51.032;5.816;2023-05-07T08:28:26;5.43;;;1.92;;
46643;SDS011;32371;51.032;5.816;2023-05-07T08:30:52;1.73;;;1.50;;
46643;SDS011;32371;51.032;5.816;2023-05-07T08:33:18;3.35;;;1.40;;
46643;SDS011;32371;51.032;5.816;2023-05-07T08:35:43;1.48;;;1.27;;
46643;SDS011;32371;51.032;5.816;2023-05-07T08:38:09;3.75;;;1.65;;
46643;SDS011;32371;51.032;5.816;2023-05-07T08:40:37;4.35;;;1.52;;
46643;SDS011;32371;51.032;5.816;2023-05-07T08:43:05;1.92;;;1.27;;
46643;SDS011;32371;51.032;5.816;2023-05-07T08:45:30;3.28;;;1.25;;
46643;SDS011;32371;51.032;5.816;2023-05-07T08:47:58;2.85;;;1.67;;
46643;SDS011;32371;51.032;5.816;2023-05-07T08:50:25;2.28;;;1.20;;
46643;SDS011;32371;51.032;5.816;2023-05-07T08:52:50;0.95;;;0.90;;
46643;SDS011;32371;51.032;5.816;2023-05-07T08:55:16;2.83;;;1.48;;
46643;SDS011;32371;51.032;5.816;2023-05-07T08:57:41;2.33;;;1.20;;
46643;SDS011;32371;51.032;5.816;2023-05-07T09:00:06;1.17;;;0.93;;
46643;SDS011;32371;51.032;5.816;2023-05-07T09:02:34;2.53;;;1.25;;
46643;SDS011;32371;51.032;5.816;2023-05-07T09:05:01;3.60;;;1.35;;
46643;SDS011;32371;51.032;5.816;2023-05-07T09:07:26;2.28;;;1.10;;
46643;SDS011;32371;51.032;5.816;2023-05-07T09:09:52;3.53;;;1.13;;
46643;SDS011;32371;51.032;5.816;2023-05-07T09:12:20;4.32;;;1.10;;
46643;SDS011;32371;51.032;5.816;2023-05-07T09:14:46;4.97;;;1.63;;
46643;SDS011;32371;51.032;5.816;2023-05-07T09:17:12;2.00;;;1.17;;
46643;SDS011;32371;51.032;5.816;2023-05-07T09:19:37;3.75;;;1.30;;
46643;SDS011;32371;51.032;5.816;2023-05-07T09:22:03;2.67;;;1.27;;
46643;SDS011;32371;51.032;5.816;2023-05-07T09:24:32;5.53;;;1.48;;
46643;SDS011;32371;51.032;5.816;2023-05-07T09:27:03;4.15;;;1.50;;
46643;SDS011;32371;51.032;5.816;2023-05-07T09:29:33;3.35;;;1.67;;
46643;SDS011;32371;51.032;5.816;2023-05-07T09:32:01;2.05;;;1.17;;
46643;SDS011;32371;51.032;5.816;2023-05-07T09:34:28;6.15;;;1.65;;
46643;SDS011;32371;51.032;5.816;2023-05-07T09:36:54;1.27;;;1.08;;
46643;SDS011;32371;51.032;5.816;2023-05-07T09:39:20;1.52;;;1.35;;
46643;SDS011;32371;51.032;5.816;2023-05-07T09:41:46;1.60;;;1.25;;
46643;SDS011;32371;51.032;5.816;2023-05-07T09:44:12;1.98;;;1.38;;
46643;SDS011;32371;51.032;5.816;2023-05-07T09:46:39;2.13;;;1.30;;
46643;SDS011;32371;51.032;5.816;2023-05-07T09:49:07;3.92;;;1.30;;
46643;SDS011;32371;51.032;5.816;2023-05-07T09:51:49;3.27;;;1.60;;
46643;SDS011;32371;51.032;5.816;2023-05-07T09:54:16;5.80;;;1.50;;
46643;SDS011;32371;51.032;5.816;2023-05-07T09:56:45;3.15;;;1.50;;
46643;SDS011;32371;51.032;5.816;2023-05-07T09:59:12;2.83;;;1.60;;
46643;SDS011;32371;51.032;5.816;2023-05-07T10:01:40;1.90;;;1.23;;
46643;SDS011;32371;51.032;5.816;2023-05-07T10:04:07;1.10;;;1.00;;
46643;SDS011;32371;51.032;5.816;2023-05-07T10:06:35;1.27;;;1.17;;
46643;SDS011;32371;51.032;5.816;2023-05-07T10:09:02;4.28;;;1.40;;
46643;SDS011;32371;51.032;5.816;2023-05-07T10:11:28;1.40;;;1.23;;
46643;SDS011;32371;51.032;5.816;2023-05-07T10:13:53;4.63;;;1.60;;
46643;SDS011;32371;51.032;5.816;2023-05-07T10:16:20;1.45;;;1.20;;
46643;SDS011;32371;51.032;5.816;2023-05-07T10:18:46;3.17;;;1.00;;
46643;SDS011;32371;51.032;5.816;2023-05-07T10:21:17;2.45;;;1.00;;
46643;SDS011;32371;51.032;5.816;2023-05-07T10:23:49;4.22;;;1.00;;
46643;SDS011;32371;51.032;5.816;2023-05-07T10:26:25;2.67;;;1.38;;
46643;SDS011;32371;51.032;5.816;2023-05-07T10:28:57;2.53;;;1.20;;
46643;SDS011;32371;51.032;5.816;2023-05-07T10:34:32;1.08;;;1.00;;
46643;SDS011;32371;51.032;5.816;2023-05-07T10:37:00;1.02;;;0.85;;
46643;SDS011;32371;51.032;5.816;2023-05-07T10:39:27;3.72;;;1.10;;
46643;SDS011;32371;51.032;5.816;2023-05-07T10:41:52;1.17;;;1.08;;
46643;SDS011;32371;51.032;5.816;2023-05-07T10:44:27;6.03;;;1.38;;
46643;SDS011;32371;51.032;5.816;2023-05-07T10:47:03;2.63;;;0.85;;
46643;SDS011;32371;51.032;5.816;2023-05-07T10:49:30;3.58;;;1.10;;
46643;SDS011;32371;51.032;5.816;2023-05-07T10:52:11;4.45;;;1.08;;
46643;SDS011;32371;51.032;5.816;2023-05-07T10:54:37;1.63;;;0.60;;
46643;SDS011;32371;51.032;5.816;2023-05-07T10:59:57;1.98;;;0.93;;
46643;SDS011;32371;51.032;5.816;2023-05-07T11:02:22;0.85;;;0.73;;
46643;SDS011;32371;51.032;5.816;2023-05-07T11:08:03;4.53;;;1.25;;
46643;SDS011;32371;51.032;5.816;2023-05-07T11:13:14;3.75;;;1.52;;
46643;SDS011;32371;51.032;5.816;2023-05-07T11:15:43;2.60;;;1.67;;
46643;SDS011;32371;51.032;5.816;2023-05-07T11:18:16;3.05;;;1.20;;
46643;SDS011;32371;51.032;5.816;2023-05-07T11:20:55;1.42;;;1.25;;
46643;SDS011;32371;51.032;5.816;2023-05-07T11:26:05;2.45;;;1.35;;
46643;SDS011;32371;51.032;5.816;2023-05-07T11:31:07;1.55;;;1.23;;
46643;SDS011;32371;51.032;5.816;2023-05-07T11:33:34;1.88;;;1.30;;
46643;SDS011;32371;51.032;5.816;2023-05-07T11:35:59;2.72;;;1.50;;
46643;SDS011;32371;51.032;5.816;2023-05-07T11:38:25;5.63;;;1.83;;
46643;SDS011;32371;51.032;5.816;2023-05-07T11:40:51;4.18;;;1.80;;
46643;SDS011;32371;51.032;5.816;2023-05-07T11:43:17;2.53;;;1.23;;
46643;SDS011;32371;51.032;5.816;2023-05-07T11:45:44;1.00;;;0.95;;
46643;SDS011;32371;51.032;5.816;2023-05-07T11:48:13;3.67;;;1.35;;
46643;SDS011;32371;51.032;5.816;2023-05-07T11:50:49;6.93;;;1.20;;
46643;SDS011;32371;51.032;5.816;2023-05-07T11:53:16;4.63;;;1.30;;
46643;SDS011;32371;51.032;5.816;2023-05-07T11:55:42;2.22;;;0.85;;
46643;SDS011;32371;51.032;5.816;2023-05-07T11:58:09;2.67;;;1.00;;
46643;SDS011;32371;51.032;5.816;2023-05-07T12:00:36;1.73;;;0.90;;
46643;SDS011;32371;51.032;5.816;2023-05-07T12:03:04;2.20;;;0.70;;
46643;SDS011;32371;51.032;5.816;2023-05-07T12:05:30;2.35;;;0.90;;
46643;SDS011;32371;51.032;5.816;2023-05-07T12:07:58;1.48;;;0.90;;
46643;SDS011;32371;51.032;5.816;2023-05-07T12:10:24;1.45;;;0.60;;
46643;SDS011;32371;51.032;5.816;2023-05-07T12:12:50;0.82;;;0.80;;
46643;SDS011;32371;51.032;5.816;2023-05-07T12:15:15;3.58;;;0.90;;
46643;SDS011;32371;51.032;5.816;2023-05-07T12:17:41;31.63;;;3.17;;
46643;SDS011;32371;51.032;5.816;2023-05-07T12:20:07;5.78;;;1.20;;
46643;SDS011;32371;51.032;5.816;2023-05-07T12:22:33;1.30;;;0.73;;
46643;SDS011;32371;51.032;5.816;2023-05-07T12:24:58;3.53;;;1.02;;
46643;SDS011;32371;51.032;5.816;2023-05-07T12:27:25;3.75;;;1.50;;
46643;SDS011;32371;51.032;5.816;2023-05-07T12:29:50;3.78;;;1.38;;
46643;SDS011;32371;51.032;5.816;2023-05-07T12:32:16;3.72;;;1.30;;
46643;SDS011;32371;51.032;5.816;2023-05-07T12:34:44;2.03;;;1.27;;
46643;SDS011;32371;51.032;5.816;2023-05-07T12:37:10;1.95;;;1.20;;
46643;SDS011;32371;51.032;5.816;2023-05-07T12:39:36;1.20;;;0.85;;
46643;SDS011;32371;51.032;5.816;2023-05-07T12:42:01;3.35;;;0.90;;
46643;SDS011;32371;51.032;5.816;2023-05-07T12:44:30;0.88;;;0.82;;
46643;SDS011;32371;51.032;5.816;2023-05-07T12:46:57;1.83;;;1.00;;
46643;SDS011;32371;51.032;5.816;2023-05-07T12:49:25;1.77;;;1.10;;
46643;SDS011;32371;51.032;5.816;2023-05-07T12:51:50;1.60;;;0.82;;
46643;SDS011;32371;51.032;5.816;2023-05-07T12:57:13;1.77;;;0.60;;
46643;SDS011;32371;51.032;5.816;2023-05-07T12:59:40;1.67;;;0.65;;
46643;SDS011;32371;51.032;5.816;2023-05-07T13:02:06;1.85;;;0.73;;
46643;SDS011;32371;51.032;5.816;2023-05-07T13:04:32;1.50;;;0.77;;
46643;SDS011;32371;51.032;5.816;2023-05-07T13:06:58;0.80;;;0.80;;
46643;SDS011;32371;51.032;5.816;2023-05-07T13:09:23;1.73;;;0.90;;
46643;SDS011;32371;51.032;5.816;2023-05-07T13:11:49;2.53;;;0.80;;
46643;SDS011;32371;51.032;5.816;2023-05-07T13:14:15;1.02;;;0.93;;
46643;SDS011;32371;51.032;5.816;2023-05-07T13:16:40;1.58;;;0.70;;
46643;SDS011;32371;51.032;5.816;2023-05-07T13:19:05;1.00;;;0.90;;
46643;SDS011;32371;51.032;5.816;2023-05-07T13:21:31;2.28;;;0.95;;
46643;SDS011;32371;51.032;5.816;2023-05-07T13:23:57;4.75;;;1.30;;
46643;SDS011;32371;51.032;5.816;2023-05-07T13:26:23;1.25;;;0.80;;
46643;SDS011;32371;51.032;5.816;2023-05-07T13:28:49;3.13;;;0.80;;
46643;SDS011;32371;51.032;5.816;2023-05-07T13:31:14;2.53;;;0.90;;
46643;SDS011;32371;51.032;5.816;2023-05-07T13:33:40;3.05;;;1.00;;
46643;SDS011;32371;51.032;5.816;2023-05-07T13:36:05;3.10;;;0.85;;
46643;SDS011;32371;51.032;5.816;2023-05-07T13:38:31;1.05;;;0.65;;
46643;SDS011;32371;51.032;5.816;2023-05-07T13:40:56;0.85;;;0.40;;
46643;SDS011;32371;51.032;5.816;2023-05-07T13:43:22;0.60;;;0.60;;
46643;SDS011;32371;51.032;5.816;2023-05-07T13:45:48;0.68;;;0.60;;
46643;SDS011;32371;51.032;5.816;2023-05-07T13:48:13;1.52;;;0.85;;
46643;SDS011;32371;51.032;5.816;2023-05-07T13:50:38;1.98;;;0.47;;
46643;SDS011;32371;51.032;5.816;2023-05-07T13:53:04;3.20;;;1.00;;
46643;SDS011;32371;51.032;5.816;2023-05-07T13:55:30;2.25;;;1.42;;
46643;SDS011;32371;51.032;5.816;2023-05-07T13:57:56;0.55;;;0.50;;
46643;SDS011;32371;51.032;5.816;2023-05-07T14:00:22;2.35;;;0.95;;
46643;SDS011;32371;51.032;5.816;2023-05-07T14:02:49;3.20;;;1.17;;
46643;SDS011;32371;51.032;5.816;2023-05-07T14:05:14;3.08;;;1.00;;
46643;SDS011;32371;51.032;5.816;2023-05-07T14:07:40;1.45;;;0.90;;
46643;SDS011;32371;51.032;5.816;2023-05-07T14:10:05;1.48;;;0.82;;
46643;SDS011;32371;51.032;5.816;2023-05-07T14:12:32;2.83;;;1.15;;
46643;SDS011;32371;51.032;5.816;2023-05-07T14:14:57;4.85;;;1.63;;
46643;SDS011;32371;51.032;5.816;2023-05-07T14:17:23;1.45;;;1.35;;
46643;SDS011;32371;51.032;5.816;2023-05-07T14:19:51;1.70;;;1.15;;
46643;SDS011;32371;51.032;5.816;2023-05-07T14:22:18;2.03;;;0.82;;
46643;SDS011;32371;51.032;5.816;2023-05-07T14:24:45;1.50;;;0.98;;
46643;SDS011;32371;51.032;5.816;2023-05-07T14:27:10;2.35;;;1.00;;
46643;SDS011;32371;51.032;5.816;2023-05-07T14:29:35;1.27;;;0.82;;
46643;SDS011;32371;51.032;5.816;2023-05-07T14:32:02;5.78;;;1.10;;
46643;SDS011;32371;51.032;5.816;2023-05-07T14:34:28;3.50;;;0.98;;
46643;SDS011;32371;51.032;5.816;2023-05-07T14:36:54;3.05;;;1.60;;
46643;SDS011;32371;51.032;5.816;2023-05-07T14:39:20;1.48;;;1.25;;
46643;SDS011;32371;51.032;5.816;2023-05-07T14:41:45;2.58;;;0.98;;
46643;SDS011;32371;51.032;5.816;2023-05-07T14:44:10;1.00;;;0.90;;
46643;SDS011;32371;51.032;5.816;2023-05-07T14:46:36;2.67;;;0.90;;
46643;SDS011;32371;51.032;5.816;2023-05-07T14:49:01;2.00;;;0.60;;
46643;SDS011;32371;51.032;5.816;2023-05-07T14:51:27;1.17;;;0.50;;
46643;SDS011;32371;51.032;5.816;2023-05-07T14:53:53;3.17;;;0.70;;
46643;SDS011;32371;51.032;5.816;2023-05-07T14:56:19;0.70;;;0.70;;
46643;SDS011;32371;51.032;5.816;2023-05-07T14:58:46;0.75;;;0.68;;
46643;SDS011;32371;51.032;5.816;2023-05-07T15:01:11;0.68;;;0.68;;